createdAt,value
2018-06-30T00:01:08.439Z,82.10
2018-06-30T00:03:42.624Z,82.30
2018-06-30T00:06:11.811Z,82.00
2018-06-30T00:08:41.096Z,82.70
2018-06-30T00:13:39.143Z,82.90
2018-06-30T00:16:08.690Z,83.00
2018-06-30T00:18:38.113Z,82.90
2018-06-30T00:21:07.879Z,83.00
2018-06-30T00:23:37.060Z,83.80
2018-06-30T00:26:06.399Z,83.30
2018-06-30T00:28:35.661Z,83.40
2018-06-30T00:31:05.251Z,83.60
2018-06-30T00:33:34.622Z,83.60
2018-06-30T00:36:04.075Z,83.60
2018-06-30T00:38:33.312Z,83.60
2018-06-30T00:41:02.578Z,83.60
2018-06-30T00:43:31.847Z,83.60
2018-06-30T00:46:01.072Z,83.50
2018-06-30T00:48:30.273Z,83.60
2018-06-30T00:50:59.446Z,83.60
2018-06-30T00:53:28.684Z,83.60
2018-06-30T00:55:57.889Z,83.60
2018-06-30T00:58:27.103Z,83.90
2018-06-30T01:00:56.359Z,84.10
2018-06-30T01:03:25.592Z,84.20
2018-06-30T01:05:54.811Z,84.50
2018-06-30T01:08:24.068Z,84.70
2018-06-30T01:10:53.324Z,85.00
2018-06-30T01:13:22.503Z,85.00
2018-06-30T01:15:51.712Z,85.80
2018-06-30T01:18:20.962Z,84.80
2018-06-30T01:20:50.259Z,84.90
2018-06-30T01:23:19.418Z,84.90
2018-06-30T01:25:49.316Z,84.80
2018-06-30T01:28:18.498Z,84.80
2018-06-30T01:30:47.697Z,84.80
2018-06-30T01:33:16.938Z,84.80
2018-06-30T01:35:46.144Z,85.00
2018-06-30T01:38:15.348Z,85.90
2018-06-30T01:40:46.436Z,84.50
2018-06-30T01:43:15.624Z,85.40
2018-06-30T01:45:44.856Z,85.40
2018-06-30T01:48:14.028Z,84.80
2018-06-30T01:50:43.280Z,85.40
2018-06-30T01:53:12.571Z,85.40
2018-06-30T01:55:41.985Z,86.20
2018-06-30T01:58:11.213Z,85.50
2018-06-30T02:00:40.384Z,85.40
2018-06-30T02:03:09.644Z,85.40
2018-06-30T02:05:39.135Z,85.30
2018-06-30T02:08:08.356Z,85.40
2018-06-30T02:10:38.225Z,85.50
2018-06-30T02:13:07.559Z,85.50
2018-06-30T02:15:36.799Z,85.60
2018-06-30T02:18:07.151Z,85.70
2018-06-30T02:20:36.338Z,85.90
2018-06-30T02:23:05.724Z,85.90
2018-06-30T02:25:34.984Z,86.00
2018-06-30T02:28:04.187Z,86.10
2018-06-30T02:30:33.371Z,86.20
2018-06-30T02:33:02.770Z,87.10
2018-06-30T02:35:31.996Z,86.40
2018-06-30T02:38:01.236Z,86.40
2018-06-30T02:40:30.442Z,86.50
2018-06-30T02:42:59.543Z,86.60
2018-06-30T02:45:28.684Z,86.60
2018-06-30T02:47:57.874Z,86.70
2018-06-30T02:52:55.784Z,86.90
2018-06-30T02:55:24.955Z,86.90
2018-06-30T02:57:54.224Z,86.30
2018-06-30T03:00:23.398Z,87.00
2018-06-30T03:02:52.679Z,87.00
2018-06-30T03:05:21.947Z,87.10
2018-06-30T03:07:51.193Z,87.10
2018-06-30T03:10:20.363Z,87.10
2018-06-30T03:12:49.556Z,87.10
2018-06-30T03:15:20.187Z,87.10
2018-06-30T03:17:49.522Z,87.10
2018-06-30T03:20:18.712Z,87.10
2018-06-30T03:22:47.867Z,87.10
2018-06-30T03:25:17.041Z,87.10
2018-06-30T03:27:46.259Z,87.00
2018-06-30T03:30:15.480Z,87.00
2018-06-30T03:32:44.956Z,87.10
2018-06-30T03:35:14.203Z,87.10
2018-06-30T03:37:44.540Z,87.20
2018-06-30T03:40:13.744Z,87.20
2018-06-30T03:42:42.955Z,87.20
2018-06-30T03:45:12.196Z,87.30
2018-06-30T03:47:41.346Z,87.30
2018-06-30T03:50:10.644Z,87.20
2018-06-30T03:52:39.868Z,87.20
2018-06-30T03:55:09.054Z,87.30
2018-06-30T03:57:38.256Z,87.50
2018-06-30T04:00:07.579Z,87.40
2018-06-30T04:02:36.790Z,87.50
2018-06-30T04:05:06.489Z,87.60
2018-06-30T04:07:35.648Z,87.50
2018-06-30T04:10:04.967Z,87.50
2018-06-30T04:12:34.212Z,87.60
2018-06-30T04:15:03.403Z,87.50
2018-06-30T04:17:33.484Z,88.30
2018-06-30T04:20:02.788Z,87.60
2018-06-30T04:22:32.069Z,87.70
2018-06-30T04:25:01.451Z,87.60
2018-06-30T04:27:30.742Z,87.80
2018-06-30T04:30:00.119Z,88.00
2018-06-30T04:32:29.322Z,88.00
2018-06-30T04:34:58.437Z,88.90
2018-06-30T04:37:27.439Z,88.30
2018-06-30T04:39:56.554Z,88.30
2018-06-30T04:42:25.727Z,88.30
2018-06-30T04:44:54.714Z,88.30
2018-06-30T04:47:23.686Z,88.40
2018-06-30T04:49:52.705Z,88.20
2018-06-30T04:52:21.650Z,88.10
2018-06-30T04:54:50.678Z,87.80
2018-06-30T04:57:19.824Z,87.80
2018-06-30T04:59:49.076Z,87.70
2018-06-30T05:02:18.300Z,87.70
2018-06-30T05:04:48.107Z,87.60
2018-06-30T05:07:17.299Z,87.20
2018-06-30T05:09:46.575Z,86.60
2018-06-30T05:12:15.810Z,86.20
2018-06-30T05:14:44.998Z,85.70
2018-06-30T05:17:14.248Z,85.10
2018-06-30T05:19:43.454Z,84.30
2018-06-30T05:22:12.682Z,84.60
2018-06-30T05:24:41.893Z,84.60
2018-06-30T05:27:11.141Z,84.20
2018-06-30T05:29:40.391Z,83.90
2018-06-30T05:32:09.682Z,83.70
2018-06-30T05:34:38.901Z,83.50
2018-06-30T05:37:08.091Z,83.20
2018-06-30T05:39:39.614Z,82.90
2018-06-30T05:42:08.739Z,82.60
2018-06-30T05:44:37.971Z,82.40
2018-06-30T05:47:07.251Z,82.30
2018-06-30T05:49:36.727Z,82.20
2018-06-30T05:52:06.019Z,82.10
2018-06-30T05:54:35.204Z,82.00
2018-06-30T05:57:04.477Z,81.80
2018-06-30T05:59:33.662Z,81.50
2018-06-30T06:02:03.036Z,81.30
2018-06-30T06:04:32.238Z,81.20
2018-06-30T06:07:01.605Z,80.70
2018-06-30T06:09:30.830Z,80.20
2018-06-30T06:12:00.053Z,79.70
2018-06-30T06:14:29.223Z,79.60
2018-06-30T06:16:58.449Z,79.30
2018-06-30T06:19:28.062Z,79.00
2018-06-30T06:21:57.287Z,78.50
2018-06-30T06:24:26.480Z,78.30
2018-06-30T06:26:55.742Z,78.00
2018-06-30T06:29:24.878Z,78.10
2018-06-30T06:31:55.095Z,78.00
2018-06-30T06:34:24.319Z,77.50
2018-06-30T06:45:31.419Z,76.00
2018-06-30T06:48:00.640Z,75.40
2018-06-30T06:50:30.013Z,75.10
2018-06-30T06:52:59.307Z,75.00
2018-06-30T06:55:28.580Z,74.70
2018-06-30T06:57:58.070Z,74.40
2018-06-30T07:00:27.339Z,74.00
2018-06-30T07:02:56.604Z,73.50
2018-06-30T07:05:27.598Z,73.60
2018-06-30T07:07:56.911Z,73.40
2018-06-30T07:10:26.153Z,73.10
2018-06-30T07:15:24.231Z,72.70
2018-06-30T07:17:53.523Z,72.40
2018-06-30T07:20:22.783Z,71.90
2018-06-30T07:22:52.031Z,71.10
2018-06-30T07:25:21.399Z,70.90
2018-06-30T07:27:50.667Z,71.00
2018-06-30T07:30:19.896Z,70.90
2018-06-30T07:32:49.122Z,71.00
2018-06-30T07:35:18.420Z,70.80
2018-06-30T07:37:47.968Z,70.40
2018-06-30T07:40:17.232Z,70.10
2018-06-30T07:42:46.549Z,69.80
2018-06-30T07:45:16.039Z,69.50
2018-06-30T07:47:45.748Z,69.30
2018-06-30T07:52:43.746Z,69.30
2018-06-30T07:55:13.283Z,69.20
2018-06-30T07:57:42.463Z,69.00
2018-06-30T08:00:11.676Z,68.70
2018-06-30T08:02:40.895Z,68.50
2018-06-30T08:05:10.159Z,68.30
2018-06-30T08:07:39.325Z,67.60
2018-06-30T08:10:08.619Z,67.50
2018-06-30T08:12:38.047Z,67.30
2018-06-30T08:15:07.303Z,66.80
2018-06-30T08:17:36.504Z,66.00
2018-06-30T08:20:05.775Z,65.30
2018-06-30T08:22:35.083Z,64.90
2018-06-30T08:25:04.539Z,64.60
2018-06-30T08:30:02.540Z,64.40
2018-06-30T08:32:31.819Z,63.90
2018-06-30T08:35:01.077Z,63.30
2018-06-30T08:37:30.298Z,62.80
2018-06-30T08:39:59.504Z,62.20
2018-06-30T08:42:28.717Z,62.00
2018-06-30T08:44:57.939Z,61.60
2018-06-30T08:47:27.151Z,61.50
2018-06-30T08:49:56.373Z,61.10
2018-06-30T08:52:25.573Z,60.80
2018-06-30T08:54:54.797Z,60.40
2018-06-30T08:57:24.071Z,60.00
2018-06-30T08:59:53.391Z,60.00
2018-06-30T09:02:22.731Z,59.60
2018-06-30T09:04:52.089Z,59.40
2018-06-30T09:07:21.322Z,59.10
2018-06-30T09:09:50.531Z,58.80
2018-06-30T09:12:20.789Z,58.20
2018-06-30T09:14:50.001Z,57.70
2018-06-30T09:17:19.197Z,57.70
2018-06-30T09:19:48.448Z,57.90
2018-06-30T09:22:17.703Z,57.90
2018-06-30T09:24:46.934Z,57.70
2018-06-30T09:27:16.170Z,57.40
2018-06-30T09:29:45.461Z,57.30
2018-06-30T09:32:14.598Z,57.40
2018-06-30T09:34:43.747Z,57.30
2018-06-30T09:37:13.060Z,57.10
2018-06-30T09:39:42.276Z,56.40
2018-06-30T09:42:11.580Z,56.00
2018-06-30T09:44:40.830Z,55.70
2018-06-30T09:47:10.064Z,55.80
2018-06-30T09:49:39.983Z,55.80
2018-06-30T09:52:09.261Z,55.60
2018-06-30T10:00:31.863Z,56.10
2018-06-30T10:03:01.272Z,55.40
2018-06-30T10:05:30.544Z,55.20
2018-06-30T10:07:59.825Z,55.20
2018-06-30T10:10:29.044Z,55.40
2018-06-30T10:12:58.320Z,55.20
2018-06-30T10:15:27.621Z,55.20
2018-06-30T10:17:56.886Z,55.00
2018-06-30T10:20:26.347Z,54.70
2018-06-30T10:22:55.631Z,54.60
2018-06-30T10:25:24.839Z,54.30
2018-06-30T10:27:54.116Z,53.90
2018-06-30T10:30:23.352Z,53.70
2018-06-30T10:32:52.570Z,53.60
2018-06-30T10:40:19.115Z,53.30
2018-06-30T10:42:48.336Z,53.00
2018-06-30T10:45:17.556Z,52.50
2018-06-30T10:47:46.803Z,52.10
2018-06-30T10:50:16.083Z,51.60
2018-06-30T10:52:45.351Z,51.30
2018-06-30T10:55:14.638Z,51.20
2018-06-30T10:57:43.951Z,51.20
2018-06-30T11:00:13.277Z,51.40
2018-06-30T11:02:42.538Z,51.00
2018-06-30T11:05:12.478Z,50.50
2018-06-30T11:07:41.671Z,50.60
2018-06-30T11:10:11.342Z,50.90
2018-06-30T11:12:40.651Z,50.10
2018-06-30T11:15:09.848Z,49.80
2018-06-30T11:17:39.153Z,49.40
2018-06-30T11:20:08.464Z,49.30
2018-06-30T11:22:37.704Z,48.90
2018-06-30T11:25:07.946Z,48.50
2018-06-30T11:27:37.307Z,48.30
2018-06-30T11:30:06.819Z,47.90
2018-06-30T11:32:36.460Z,47.70
2018-06-30T11:35:06.278Z,47.90
2018-06-30T11:37:35.512Z,48.00
2018-06-30T11:40:04.919Z,47.90
2018-06-30T11:42:34.128Z,47.50
2018-06-30T11:45:03.376Z,46.50
2018-06-30T11:47:32.875Z,46.20
2018-06-30T11:50:02.164Z,46.30
2018-06-30T11:52:31.336Z,45.60
2018-06-30T11:55:00.547Z,45.20
2018-06-30T11:57:29.743Z,45.10
2018-06-30T12:00:04.167Z,44.90
2018-06-30T12:02:33.499Z,44.80
2018-06-30T12:05:03.390Z,44.90
2018-06-30T12:07:32.563Z,44.90
2018-06-30T12:10:01.835Z,44.20
2018-06-30T12:12:31.107Z,43.50
2018-06-30T12:15:00.316Z,42.90
2018-06-30T12:17:29.590Z,42.70
2018-06-30T12:19:58.903Z,42.40
2018-06-30T12:22:28.139Z,41.90
2018-06-30T12:24:57.443Z,42.00
2018-06-30T12:27:26.736Z,41.80
2018-06-30T12:29:56.010Z,41.70
2018-06-30T12:32:25.872Z,41.70
2018-06-30T12:34:55.076Z,41.10
2018-06-30T12:37:24.267Z,41.00
2018-06-30T12:39:53.511Z,40.50
2018-06-30T12:42:22.771Z,39.80
2018-06-30T12:44:52.837Z,39.80
2018-06-30T12:47:22.067Z,39.60
2018-06-30T12:49:53.275Z,39.50
2018-06-30T12:52:22.523Z,39.40
2018-06-30T12:54:51.765Z,39.00
2018-06-30T12:57:20.965Z,38.90
2018-06-30T12:59:50.220Z,38.80
2018-06-30T13:02:19.636Z,38.50
2018-06-30T13:04:48.974Z,38.00
2018-06-30T13:07:18.174Z,37.90
2018-06-30T13:09:47.446Z,37.80
2018-06-30T13:12:16.982Z,37.70
2018-06-30T13:14:46.207Z,37.60
2018-06-30T13:17:17.395Z,37.30
2018-06-30T13:19:46.690Z,37.00
2018-06-30T13:22:15.934Z,37.30
2018-06-30T13:24:46.659Z,37.00
2018-06-30T13:27:16.783Z,36.60
2018-06-30T13:29:46.163Z,36.30
2018-06-30T13:32:15.553Z,35.80
2018-06-30T13:37:14.808Z,35.40
2018-06-30T13:39:50.942Z,35.10
2018-06-30T13:42:20.191Z,35.00
2018-06-30T13:44:49.535Z,34.70
2018-06-30T13:47:18.781Z,34.80
2018-06-30T13:49:47.987Z,34.80
2018-06-30T13:52:17.651Z,34.50
2018-06-30T13:54:47.144Z,33.80
2018-06-30T13:57:16.492Z,33.70
2018-06-30T13:59:45.634Z,32.70
2018-06-30T14:02:14.887Z,33.30
2018-06-30T14:04:44.157Z,32.10
2018-06-30T14:07:13.600Z,31.80
2018-06-30T14:09:46.751Z,31.60
2018-06-30T14:12:15.953Z,31.50
2018-06-30T14:14:51.520Z,31.20
2018-06-30T14:17:25.091Z,30.60
2018-06-30T14:19:54.418Z,30.40
2018-06-30T14:22:23.704Z,30.70
2018-06-30T14:24:52.875Z,29.70
2018-06-30T14:27:22.146Z,29.60
2018-06-30T14:29:51.416Z,29.50
2018-06-30T14:32:20.656Z,29.50
2018-06-30T14:34:49.855Z,29.20
2018-06-30T14:37:19.144Z,28.80
2018-06-30T14:39:49.883Z,29.00
2018-06-30T14:42:19.514Z,28.90
2018-06-30T14:44:48.803Z,28.60
2018-06-30T14:47:18.099Z,28.20
2018-06-30T14:49:47.531Z,28.20
2018-06-30T14:52:16.867Z,28.40
2018-06-30T14:54:47.582Z,28.00
2018-06-30T14:57:16.863Z,27.70
2018-06-30T14:59:46.068Z,27.30
2018-06-30T15:02:15.518Z,27.30
2018-06-30T15:10:30.204Z,27.20
2018-06-30T15:12:59.457Z,27.10
2018-06-30T15:15:28.764Z,26.80
2018-06-30T15:17:59.339Z,26.30
2018-06-30T15:20:28.644Z,26.20
2018-06-30T15:22:57.875Z,26.60
2018-06-30T15:25:27.333Z,26.00
2018-06-30T15:27:56.803Z,26.10
2018-06-30T15:30:26.190Z,26.10
2018-06-30T15:32:55.531Z,25.90
2018-06-30T15:35:24.727Z,25.80
2018-06-30T15:37:54.287Z,25.90
2018-06-30T15:40:23.611Z,25.90
2018-06-30T15:42:52.843Z,25.80
2018-06-30T15:45:22.428Z,25.40
2018-06-30T15:47:51.767Z,25.00
2018-06-30T15:50:26.958Z,25.20
2018-06-30T15:52:56.283Z,25.00
2018-06-30T15:55:26.141Z,25.20
2018-06-30T15:57:55.871Z,25.90
2018-06-30T16:00:26.237Z,25.80
2018-06-30T16:02:55.612Z,25.50
2018-06-30T16:05:24.910Z,26.00
2018-06-30T16:07:54.522Z,26.10
2018-06-30T16:10:24.515Z,26.10
2018-06-30T16:12:53.935Z,26.10
2018-06-30T16:15:23.347Z,25.70
2018-06-30T16:17:52.560Z,25.70
2018-06-30T16:20:21.766Z,25.50
2018-06-30T16:22:50.910Z,25.50
2018-06-30T16:25:20.103Z,25.30
2018-06-30T16:27:49.319Z,25.10
2018-06-30T16:30:18.641Z,25.10
2018-06-30T16:32:47.917Z,25.30
2018-06-30T16:35:17.690Z,25.40
2018-06-30T16:37:46.967Z,25.60
2018-06-30T16:40:16.176Z,25.50
2018-06-30T16:42:45.400Z,26.40
2018-06-30T16:45:14.880Z,26.20
2018-06-30T16:47:44.380Z,26.20
2018-06-30T16:50:13.651Z,26.30
2018-06-30T16:52:42.905Z,26.50
2018-06-30T16:55:12.121Z,26.70
2018-06-30T16:57:41.350Z,26.90
2018-06-30T17:00:11.075Z,27.40
2018-06-30T17:02:40.286Z,27.30
2018-06-30T17:05:09.813Z,27.10
2018-06-30T17:07:38.975Z,27.30
2018-06-30T17:10:08.368Z,27.30
2018-06-30T17:15:06.675Z,27.30
2018-06-30T17:20:31.214Z,27.60
2018-06-30T17:23:00.636Z,27.60
2018-06-30T17:25:37.803Z,27.50
2018-06-30T17:28:16.626Z,27.40
2018-06-30T17:30:45.899Z,27.80
2018-06-30T17:39:00.975Z,28.20
2018-06-30T17:41:30.309Z,28.50
2018-06-30T17:43:59.553Z,28.60
2018-06-30T17:46:28.825Z,28.80
2018-06-30T17:48:58.119Z,28.70
2018-06-30T17:51:27.395Z,28.50
2018-06-30T17:53:56.636Z,28.50
2018-06-30T17:56:25.949Z,28.70
2018-06-30T17:58:55.100Z,29.20
2018-06-30T18:01:24.251Z,29.20
2018-06-30T18:03:53.459Z,29.30
2018-06-30T18:06:23.119Z,29.70
2018-06-30T18:08:52.326Z,30.00
2018-06-30T18:11:21.639Z,29.80
2018-06-30T18:13:51.267Z,29.90
2018-06-30T18:16:20.553Z,29.90
2018-06-30T18:18:50.040Z,29.80
2018-06-30T18:21:19.379Z,30.10
2018-06-30T18:23:48.835Z,30.10
2018-06-30T18:26:34.447Z,30.80
2018-06-30T18:29:03.768Z,30.80
2018-06-30T18:31:33.230Z,31.10
2018-06-30T18:34:02.667Z,31.40
2018-06-30T18:36:33.176Z,31.80
2018-06-30T18:39:18.621Z,31.80
2018-06-30T18:41:49.776Z,31.60
2018-06-30T18:44:19.118Z,31.00
2018-06-30T18:58:22.222Z,33.20
2018-06-30T19:00:56.941Z,32.80
2018-06-30T19:03:26.848Z,33.20
2018-06-30T19:05:56.138Z,33.00
2018-06-30T19:08:25.391Z,33.20
2018-06-30T19:13:49.350Z,34.30
2018-06-30T19:16:18.623Z,34.30
2018-06-30T19:18:48.075Z,34.30
2018-06-30T19:21:17.969Z,34.30
2018-06-30T19:23:47.687Z,35.10
2018-06-30T19:26:17.138Z,35.90
2018-06-30T19:28:46.782Z,36.20
2018-06-30T19:31:16.041Z,36.70
2018-06-30T19:33:45.371Z,37.00
2018-06-30T19:36:14.563Z,36.90
2018-06-30T19:38:43.794Z,36.90
2018-06-30T19:41:13.393Z,37.50
2018-06-30T19:43:42.714Z,38.10
2018-06-30T19:46:11.929Z,38.70
2018-06-30T19:48:46.762Z,39.00
2018-06-30T19:51:15.956Z,38.90
2018-06-30T19:59:14.031Z,39.70
2018-06-30T20:01:43.203Z,39.80
2018-06-30T20:04:12.831Z,39.40
2018-06-30T20:06:43.986Z,39.00
2018-06-30T20:09:14.408Z,39.10
2018-06-30T20:11:43.932Z,39.40
2018-06-30T20:14:14.628Z,40.10
2018-06-30T20:16:43.893Z,39.40
2018-06-30T20:19:15.262Z,39.30
2018-06-30T20:21:44.620Z,39.50
2018-06-30T20:24:13.827Z,40.00
2018-06-30T20:26:43.909Z,40.60
2018-06-30T20:29:13.232Z,41.40
2018-06-30T20:31:42.447Z,41.90
2018-06-30T20:34:11.668Z,41.90
2018-06-30T20:36:41.925Z,41.90
2018-06-30T20:39:12.141Z,42.60
2018-06-30T20:41:41.404Z,43.10
2018-06-30T20:44:10.799Z,43.10
2018-06-30T20:46:41.782Z,43.00
2018-06-30T20:49:11.450Z,43.20
2018-06-30T20:51:41.056Z,43.10
2018-06-30T20:54:10.462Z,43.40
2018-06-30T20:56:40.236Z,43.60
2018-06-30T21:05:08.872Z,44.10
2018-06-30T21:07:38.012Z,44.50
2018-06-30T21:10:07.548Z,45.10
2018-06-30T21:12:36.875Z,45.10
2018-06-30T21:15:06.300Z,45.00
2018-06-30T21:17:35.549Z,45.50
2018-06-30T21:20:05.471Z,46.00
2018-06-30T21:22:34.744Z,46.40
2018-06-30T21:25:04.914Z,47.10
2018-06-30T21:27:34.127Z,47.50
2018-06-30T21:30:03.376Z,48.10
2018-06-30T21:32:32.676Z,48.50
2018-06-30T21:35:01.821Z,49.10
2018-06-30T21:37:31.083Z,49.40
2018-06-30T21:40:00.241Z,49.50
2018-06-30T21:42:30.109Z,49.50
2018-06-30T21:44:59.279Z,49.60
2018-06-30T21:47:28.510Z,50.00
2018-06-30T21:49:57.777Z,50.00
2018-06-30T21:52:26.964Z,49.80
2018-06-30T21:54:56.220Z,49.60
2018-06-30T21:57:25.412Z,49.30
2018-06-30T21:59:54.663Z,49.20
2018-06-30T22:02:23.931Z,49.20
2018-06-30T22:04:53.150Z,49.30
2018-06-30T22:07:22.478Z,49.40
2018-06-30T22:09:51.808Z,50.20
2018-06-30T22:12:21.095Z,50.60
2018-06-30T22:14:51.241Z,50.80
2018-06-30T22:17:20.489Z,50.90
2018-06-30T22:19:49.851Z,51.10
2018-06-30T22:22:19.131Z,51.50
2018-06-30T22:24:48.359Z,51.50
2018-06-30T22:27:17.670Z,51.80
2018-06-30T22:29:46.915Z,51.70
2018-06-30T22:32:19.775Z,51.30
2018-06-30T22:34:49.079Z,50.50
2018-06-30T22:37:18.396Z,50.30
2018-06-30T22:39:58.531Z,49.90
2018-06-30T22:42:27.777Z,49.40
2018-06-30T22:44:57.011Z,48.80
2018-06-30T22:47:26.279Z,48.40
2018-06-30T22:49:55.475Z,48.10
2018-06-30T22:52:24.760Z,47.80
2018-06-30T22:54:53.956Z,47.60
2018-06-30T22:57:23.634Z,47.40
2018-06-30T22:59:53.538Z,47.10
2018-06-30T23:02:22.857Z,47.00
2018-06-30T23:04:52.079Z,46.80
2018-06-30T23:07:21.305Z,46.50
2018-06-30T23:09:50.748Z,46.70
2018-06-30T23:12:20.043Z,46.30
2018-06-30T23:17:18.089Z,46.60
2018-06-30T23:19:47.624Z,46.90
2018-06-30T23:24:49.214Z,47.40
2018-06-30T23:27:18.570Z,47.60
2018-06-30T23:29:47.860Z,47.50
2018-06-30T23:32:17.989Z,47.50
2018-06-30T23:34:47.547Z,47.50
2018-06-30T23:37:16.699Z,47.40
2018-06-30T23:39:45.846Z,48.20
2018-06-30T23:42:15.008Z,47.60
2018-06-30T23:44:44.218Z,47.50
2018-06-30T23:47:13.420Z,47.80
2018-06-30T23:49:42.635Z,48.00
2018-06-30T23:52:12.392Z,47.90
2018-06-30T23:54:41.728Z,47.80
2018-06-30T23:57:11.669Z,47.90
2018-06-30T23:59:44.411Z,48.80
